sensor_id;sensor_type;location;lat;lon;timestamp;P1;durP1;ratioP1;P2;durP2;ratioP2
62790;SDS011;48830;53.426;10.300;2022-10-31T00:00:54;34.47;;;10.55;;
62790;SDS011;48830;53.426;10.300;2022-10-31T00:03:20;22.42;;;9.75;;
62790;SDS011;48830;53.426;10.300;2022-10-31T00:05:46;15.85;;;9.73;;
62790;SDS011;48830;53.426;10.300;2022-10-31T00:08:13;13.65;;;8.73;;
62790;SDS011;48830;53.426;10.300;2022-10-31T00:10:39;12.85;;;9.05;;
62790;SDS011;48830;53.426;10.300;2022-10-31T00:13:06;14.23;;;8.65;;
62790;SDS011;48830;53.426;10.300;2022-10-31T00:15:35;14.77;;;9.18;;
62790;SDS011;48830;53.426;10.300;2022-10-31T00:18:01;16.60;;;9.32;;
62790;SDS011;48830;53.426;10.300;2022-10-31T00:20:28;14.18;;;8.77;;
62790;SDS011;48830;53.426;10.300;2022-10-31T00:22:56;28.80;;;9.75;;
62790;SDS011;48830;53.426;10.300;2022-10-31T00:25:22;22.30;;;9.20;;
62790;SDS011;48830;53.426;10.300;2022-10-31T00:27:48;16.02;;;9.32;;
62790;SDS011;48830;53.426;10.300;2022-10-31T00:30:13;29.70;;;9.85;;
62790;SDS011;48830;53.426;10.300;2022-10-31T00:32:40;15.38;;;9.15;;
62790;SDS011;48830;53.426;10.300;2022-10-31T00:35:05;17.58;;;9.18;;
62790;SDS011;48830;53.426;10.300;2022-10-31T00:37:31;17.17;;;8.90;;
62790;SDS011;48830;53.426;10.300;2022-10-31T00:39:57;17.50;;;10.00;;
62790;SDS011;48830;53.426;10.300;2022-10-31T00:42:22;15.05;;;8.95;;
62790;SDS011;48830;53.426;10.300;2022-10-31T00:44:47;26.15;;;9.60;;
62790;SDS011;48830;53.426;10.300;2022-10-31T00:47:13;14.30;;;8.50;;
62790;SDS011;48830;53.426;10.300;2022-10-31T00:49:38;16.83;;;9.52;;
62790;SDS011;48830;53.426;10.300;2022-10-31T00:52:04;16.67;;;9.07;;
62790;SDS011;48830;53.426;10.300;2022-10-31T00:54:29;12.18;;;8.73;;
62790;SDS011;48830;53.426;10.300;2022-10-31T00:56:56;11.18;;;7.85;;
62790;SDS011;48830;53.426;10.300;2022-10-31T00:59:22;11.98;;;7.28;;
62790;SDS011;48830;53.426;10.300;2022-10-31T01:01:48;9.68;;;7.68;;
62790;SDS011;48830;53.426;10.300;2022-10-31T01:04:14;11.25;;;7.63;;
62790;SDS011;48830;53.426;10.300;2022-10-31T01:06:40;14.38;;;7.55;;
62790;SDS011;48830;53.426;10.300;2022-10-31T01:09:05;10.98;;;7.55;;
62790;SDS011;48830;53.426;10.300;2022-10-31T01:11:31;8.77;;;7.47;;
62790;SDS011;48830;53.426;10.300;2022-10-31T01:13:56;10.27;;;7.53;;
62790;SDS011;48830;53.426;10.300;2022-10-31T01:16:24;9.30;;;7.10;;
62790;SDS011;48830;53.426;10.300;2022-10-31T01:18:50;8.85;;;6.95;;
62790;SDS011;48830;53.426;10.300;2022-10-31T01:21:22;14.27;;;8.60;;
62790;SDS011;48830;53.426;10.300;2022-10-31T01:23:49;12.35;;;8.43;;
62790;SDS011;48830;53.426;10.300;2022-10-31T01:26:23;9.98;;;8.10;;
62790;SDS011;48830;53.426;10.300;2022-10-31T01:28:51;10.13;;;7.35;;
62790;SDS011;48830;53.426;10.300;2022-10-31T01:31:21;12.23;;;8.10;;
62790;SDS011;48830;53.426;10.300;2022-10-31T01:33:48;13.77;;;9.23;;
62790;SDS011;48830;53.426;10.300;2022-10-31T01:36:16;11.52;;;8.82;;
62790;SDS011;48830;53.426;10.300;2022-10-31T01:38:49;12.32;;;8.68;;
62790;SDS011;48830;53.426;10.300;2022-10-31T01:41:18;10.88;;;8.55;;
62790;SDS011;48830;53.426;10.300;2022-10-31T01:46:37;12.05;;;8.15;;
62790;SDS011;48830;53.426;10.300;2022-10-31T01:49:35;11.35;;;8.20;;
62790;SDS011;48830;53.426;10.300;2022-10-31T01:55:02;10.50;;;8.07;;
62790;SDS011;48830;53.426;10.300;2022-10-31T01:57:34;9.65;;;7.55;;
62790;SDS011;48830;53.426;10.300;2022-10-31T02:00:05;9.25;;;7.53;;
62790;SDS011;48830;53.426;10.300;2022-10-31T02:02:38;9.77;;;7.55;;
62790;SDS011;48830;53.426;10.300;2022-10-31T02:05:06;9.57;;;7.32;;
62790;SDS011;48830;53.426;10.300;2022-10-31T02:10:07;11.25;;;7.13;;
62790;SDS011;48830;53.426;10.300;2022-10-31T02:12:32;9.32;;;7.22;;
62790;SDS011;48830;53.426;10.300;2022-10-31T02:15:01;10.82;;;7.28;;
62790;SDS011;48830;53.426;10.300;2022-10-31T02:17:27;10.02;;;6.90;;
62790;SDS011;48830;53.426;10.300;2022-10-31T02:20:13;9.98;;;6.85;;
62790;SDS011;48830;53.426;10.300;2022-10-31T02:34:10;8.25;;;5.85;;
62790;SDS011;48830;53.426;10.300;2022-10-31T02:36:29;8.13;;;5.60;;
62790;SDS011;48830;53.426;10.300;2022-10-31T02:39:11;7.38;;;5.38;;
62790;SDS011;48830;53.426;10.300;2022-10-31T02:42:09;7.78;;;5.68;;
62790;SDS011;48830;53.426;10.300;2022-10-31T02:47:24;7.38;;;5.55;;
62790;SDS011;48830;53.426;10.300;2022-10-31T02:52:31;8.20;;;5.47;;
62790;SDS011;48830;53.426;10.300;2022-10-31T02:55:09;6.82;;;5.32;;
62790;SDS011;48830;53.426;10.300;2022-10-31T02:57:37;7.80;;;5.35;;
62790;SDS011;48830;53.426;10.300;2022-10-31T03:00:06;7.38;;;5.35;;
62790;SDS011;48830;53.426;10.300;2022-10-31T03:05:05;6.78;;;5.22;;
62790;SDS011;48830;53.426;10.300;2022-10-31T03:12:59;8.70;;;5.45;;
62790;SDS011;48830;53.426;10.300;2022-10-31T03:15:51;7.57;;;5.72;;
62790;SDS011;48830;53.426;10.300;2022-10-31T03:18:28;11.38;;;6.07;;
62790;SDS011;48830;53.426;10.300;2022-10-31T03:21:01;10.80;;;6.03;;
62790;SDS011;48830;53.426;10.300;2022-10-31T03:23:34;8.60;;;6.30;;
62790;SDS011;48830;53.426;10.300;2022-10-31T03:26:03;11.95;;;5.90;;
62790;SDS011;48830;53.426;10.300;2022-10-31T03:28:33;7.45;;;5.65;;
62790;SDS011;48830;53.426;10.300;2022-10-31T03:31:03;7.63;;;5.88;;
62790;SDS011;48830;53.426;10.300;2022-10-31T03:33:31;8.45;;;5.82;;
62790;SDS011;48830;53.426;10.300;2022-10-31T03:36:00;7.90;;;6.10;;
62790;SDS011;48830;53.426;10.300;2022-10-31T03:38:30;9.27;;;6.10;;
62790;SDS011;48830;53.426;10.300;2022-10-31T03:40:58;7.53;;;5.60;;
62790;SDS011;48830;53.426;10.300;2022-10-31T03:43:28;8.05;;;5.53;;
62790;SDS011;48830;53.426;10.300;2022-10-31T03:45:57;9.20;;;5.70;;
62790;SDS011;48830;53.426;10.300;2022-10-31T03:48:23;9.05;;;5.63;;
62790;SDS011;48830;53.426;10.300;2022-10-31T03:56:41;8.05;;;5.93;;
62790;SDS011;48830;53.426;10.300;2022-10-31T03:59:15;11.68;;;6.30;;
62790;SDS011;48830;53.426;10.300;2022-10-31T04:01:48;10.25;;;6.45;;
62790;SDS011;48830;53.426;10.300;2022-10-31T04:04:16;11.70;;;7.20;;
62790;SDS011;48830;53.426;10.300;2022-10-31T04:06:43;10.32;;;6.15;;
62790;SDS011;48830;53.426;10.300;2022-10-31T04:09:10;8.10;;;5.88;;
62790;SDS011;48830;53.426;10.300;2022-10-31T04:11:44;9.73;;;6.13;;
62790;SDS011;48830;53.426;10.300;2022-10-31T04:14:37;9.00;;;6.18;;
62790;SDS011;48830;53.426;10.300;2022-10-31T04:17:05;13.57;;;8.07;;
62790;SDS011;48830;53.426;10.300;2022-10-31T04:19:38;12.98;;;6.88;;
62790;SDS011;48830;53.426;10.300;2022-10-31T04:22:04;10.57;;;6.75;;
62790;SDS011;48830;53.426;10.300;2022-10-31T04:24:29;11.27;;;6.28;;
62790;SDS011;48830;53.426;10.300;2022-10-31T04:26:56;9.38;;;6.57;;
62790;SDS011;48830;53.426;10.300;2022-10-31T04:29:22;10.40;;;6.40;;
62790;SDS011;48830;53.426;10.300;2022-10-31T04:31:47;10.45;;;6.38;;
62790;SDS011;48830;53.426;10.300;2022-10-31T04:34:13;12.73;;;7.38;;
62790;SDS011;48830;53.426;10.300;2022-10-31T04:36:38;13.10;;;7.18;;
62790;SDS011;48830;53.426;10.300;2022-10-31T04:39:04;11.57;;;7.20;;
62790;SDS011;48830;53.426;10.300;2022-10-31T04:41:40;12.18;;;7.10;;
62790;SDS011;48830;53.426;10.300;2022-10-31T04:44:13;8.63;;;6.47;;
62790;SDS011;48830;53.426;10.300;2022-10-31T04:46:38;13.75;;;8.00;;
62790;SDS011;48830;53.426;10.300;2022-10-31T04:49:03;12.88;;;7.57;;
62790;SDS011;48830;53.426;10.300;2022-10-31T04:51:29;17.45;;;8.82;;
62790;SDS011;48830;53.426;10.300;2022-10-31T04:53:55;19.42;;;9.55;;
62790;SDS011;48830;53.426;10.300;2022-10-31T04:56:46;22.13;;;9.88;;
62790;SDS011;48830;53.426;10.300;2022-10-31T04:59:17;20.50;;;10.30;;
62790;SDS011;48830;53.426;10.300;2022-10-31T05:01:48;21.27;;;9.25;;
62790;SDS011;48830;53.426;10.300;2022-10-31T05:04:17;23.65;;;10.60;;
62790;SDS011;48830;53.426;10.300;2022-10-31T05:06:42;23.30;;;10.38;;
62790;SDS011;48830;53.426;10.300;2022-10-31T05:09:07;20.38;;;10.77;;
62790;SDS011;48830;53.426;10.300;2022-10-31T05:11:33;24.73;;;11.68;;
62790;SDS011;48830;53.426;10.300;2022-10-31T05:14:09;22.10;;;10.98;;
62790;SDS011;48830;53.426;10.300;2022-10-31T05:16:53;29.40;;;11.98;;
62790;SDS011;48830;53.426;10.300;2022-10-31T05:19:44;27.63;;;12.15;;
62790;SDS011;48830;53.426;10.300;2022-10-31T05:22:45;30.70;;;13.20;;
62790;SDS011;48830;53.426;10.300;2022-10-31T05:25:13;29.98;;;13.27;;
62790;SDS011;48830;53.426;10.300;2022-10-31T05:27:40;28.55;;;14.05;;
62790;SDS011;48830;53.426;10.300;2022-10-31T05:30:10;39.33;;;14.30;;
62790;SDS011;48830;53.426;10.300;2022-10-31T05:32:40;32.30;;;14.98;;
62790;SDS011;48830;53.426;10.300;2022-10-31T05:35:46;34.05;;;14.65;;
62790;SDS011;48830;53.426;10.300;2022-10-31T05:38:26;48.10;;;19.73;;
62790;SDS011;48830;53.426;10.300;2022-10-31T05:40:55;47.53;;;20.55;;
62790;SDS011;48830;53.426;10.300;2022-10-31T05:43:25;59.85;;;22.35;;
62790;SDS011;48830;53.426;10.300;2022-10-31T05:45:52;57.03;;;22.40;;
62790;SDS011;48830;53.426;10.300;2022-10-31T05:48:38;59.85;;;21.40;;
62790;SDS011;48830;53.426;10.300;2022-10-31T05:51:27;49.22;;;22.15;;
62790;SDS011;48830;53.426;10.300;2022-10-31T05:53:52;54.67;;;22.42;;
62790;SDS011;48830;53.426;10.300;2022-10-31T05:56:18;64.68;;;23.67;;
62790;SDS011;48830;53.426;10.300;2022-10-31T05:58:43;64.75;;;25.85;;
62790;SDS011;48830;53.426;10.300;2022-10-31T06:01:08;63.17;;;23.35;;
62790;SDS011;48830;53.426;10.300;2022-10-31T06:03:34;59.45;;;23.45;;
62790;SDS011;48830;53.426;10.300;2022-10-31T06:06:02;65.22;;;23.45;;
62790;SDS011;48830;53.426;10.300;2022-10-31T06:08:39;56.47;;;23.85;;
62790;SDS011;48830;53.426;10.300;2022-10-31T06:11:11;57.67;;;24.02;;
62790;SDS011;48830;53.426;10.300;2022-10-31T06:14:02;61.05;;;25.42;;
62790;SDS011;48830;53.426;10.300;2022-10-31T06:16:39;54.78;;;25.98;;
62790;SDS011;48830;53.426;10.300;2022-10-31T06:19:24;50.22;;;23.42;;
62790;SDS011;48830;53.426;10.300;2022-10-31T06:21:50;57.58;;;24.65;;
62790;SDS011;48830;53.426;10.300;2022-10-31T06:24:16;53.17;;;23.73;;
62790;SDS011;48830;53.426;10.300;2022-10-31T06:27:00;52.05;;;26.23;;
62790;SDS011;48830;53.426;10.300;2022-10-31T06:29:25;76.00;;;31.05;;
62790;SDS011;48830;53.426;10.300;2022-10-31T06:32:13;75.35;;;31.08;;
62790;SDS011;48830;53.426;10.300;2022-10-31T06:34:42;72.72;;;31.42;;
62790;SDS011;48830;53.426;10.300;2022-10-31T06:37:09;77.13;;;32.90;;
62790;SDS011;48830;53.426;10.300;2022-10-31T06:39:40;86.32;;;31.70;;
62790;SDS011;48830;53.426;10.300;2022-10-31T06:42:08;87.82;;;30.75;;
62790;SDS011;48830;53.426;10.300;2022-10-31T06:44:34;87.85;;;32.35;;
62790;SDS011;48830;53.426;10.300;2022-10-31T06:47:18;90.07;;;31.05;;
62790;SDS011;48830;53.426;10.300;2022-10-31T06:50:00;109.45;;;33.97;;
62790;SDS011;48830;53.426;10.300;2022-10-31T06:52:26;99.95;;;33.58;;
62790;SDS011;48830;53.426;10.300;2022-10-31T06:54:51;107.30;;;35.35;;
62790;SDS011;48830;53.426;10.300;2022-10-31T06:57:17;113.05;;;38.10;;
62790;SDS011;48830;53.426;10.300;2022-10-31T06:59:43;122.88;;;40.00;;
62790;SDS011;48830;53.426;10.300;2022-10-31T07:02:14;125.85;;;39.92;;
62790;SDS011;48830;53.426;10.300;2022-10-31T07:04:41;110.70;;;38.83;;
62790;SDS011;48830;53.426;10.300;2022-10-31T07:07:07;112.88;;;40.50;;
62790;SDS011;48830;53.426;10.300;2022-10-31T07:09:34;101.28;;;40.45;;
62790;SDS011;48830;53.426;10.300;2022-10-31T07:12:02;100.07;;;40.95;;
62790;SDS011;48830;53.426;10.300;2022-10-31T07:14:29;102.10;;;41.33;;
62790;SDS011;48830;53.426;10.300;2022-10-31T07:16:55;100.32;;;40.33;;
62790;SDS011;48830;53.426;10.300;2022-10-31T07:19:30;92.57;;;39.63;;
62790;SDS011;48830;53.426;10.300;2022-10-31T07:21:56;94.13;;;39.42;;
62790;SDS011;48830;53.426;10.300;2022-10-31T07:24:26;86.50;;;39.17;;
62790;SDS011;48830;53.426;10.300;2022-10-31T07:27:20;99.88;;;39.83;;
62790;SDS011;48830;53.426;10.300;2022-10-31T07:29:47;98.40;;;39.53;;
62790;SDS011;48830;53.426;10.300;2022-10-31T07:32:14;90.53;;;39.55;;
62790;SDS011;48830;53.426;10.300;2022-10-31T07:34:45;88.03;;;37.63;;
62790;SDS011;48830;53.426;10.300;2022-10-31T07:37:22;77.75;;;35.90;;
62790;SDS011;48830;53.426;10.300;2022-10-31T07:39:47;84.50;;;37.42;;
62790;SDS011;48830;53.426;10.300;2022-10-31T07:42:13;88.22;;;37.88;;
62790;SDS011;48830;53.426;10.300;2022-10-31T07:44:42;88.90;;;37.00;;
62790;SDS011;48830;53.426;10.300;2022-10-31T07:47:46;90.63;;;37.50;;
62790;SDS011;48830;53.426;10.300;2022-10-31T07:50:32;89.63;;;38.67;;
62790;SDS011;48830;53.426;10.300;2022-10-31T07:53:19;84.95;;;36.90;;
62790;SDS011;48830;53.426;10.300;2022-10-31T07:56:03;84.72;;;36.35;;
62790;SDS011;48830;53.426;10.300;2022-10-31T07:58:29;82.25;;;34.85;;
62790;SDS011;48830;53.426;10.300;2022-10-31T08:00:57;79.95;;;34.00;;
62790;SDS011;48830;53.426;10.300;2022-10-31T08:03:33;75.85;;;32.45;;
62790;SDS011;48830;53.426;10.300;2022-10-31T08:06:17;77.53;;;32.88;;
62790;SDS011;48830;53.426;10.300;2022-10-31T08:09:02;78.00;;;32.58;;
62790;SDS011;48830;53.426;10.300;2022-10-31T08:11:29;70.53;;;31.45;;
62790;SDS011;48830;53.426;10.300;2022-10-31T08:13:54;69.60;;;31.83;;
62790;SDS011;48830;53.426;10.300;2022-10-31T08:16:20;61.85;;;30.42;;
62790;SDS011;48830;53.426;10.300;2022-10-31T08:18:53;73.80;;;32.13;;
62790;SDS011;48830;53.426;10.300;2022-10-31T08:21:21;71.40;;;30.13;;
62790;SDS011;48830;53.426;10.300;2022-10-31T08:23:46;63.38;;;30.05;;
62790;SDS011;48830;53.426;10.300;2022-10-31T08:26:13;67.95;;;30.00;;
62790;SDS011;48830;53.426;10.300;2022-10-31T08:28:38;66.30;;;28.05;;
62790;SDS011;48830;53.426;10.300;2022-10-31T08:31:04;65.40;;;29.08;;
62790;SDS011;48830;53.426;10.300;2022-10-31T08:33:39;64.15;;;29.00;;
62790;SDS011;48830;53.426;10.300;2022-10-31T08:36:17;55.78;;;27.70;;
62790;SDS011;48830;53.426;10.300;2022-10-31T08:39:04;63.65;;;26.63;;
62790;SDS011;48830;53.426;10.300;2022-10-31T08:41:29;50.75;;;26.13;;
62790;SDS011;48830;53.426;10.300;2022-10-31T08:43:56;53.63;;;25.83;;
62790;SDS011;48830;53.426;10.300;2022-10-31T08:46:22;47.00;;;25.17;;
62790;SDS011;48830;53.426;10.300;2022-10-31T08:48:47;52.00;;;24.15;;
62790;SDS011;48830;53.426;10.300;2022-10-31T08:51:14;54.17;;;25.25;;
62790;SDS011;48830;53.426;10.300;2022-10-31T08:53:41;49.28;;;23.88;;
62790;SDS011;48830;53.426;10.300;2022-10-31T08:56:35;48.85;;;24.63;;
62790;SDS011;48830;53.426;10.300;2022-10-31T08:59:04;53.10;;;22.77;;
62790;SDS011;48830;53.426;10.300;2022-10-31T09:01:53;51.33;;;23.88;;
62790;SDS011;48830;53.426;10.300;2022-10-31T09:04:18;36.63;;;17.98;;
62790;SDS011;48830;53.426;10.300;2022-10-31T09:06:44;41.65;;;18.15;;
62790;SDS011;48830;53.426;10.300;2022-10-31T09:09:10;42.38;;;18.92;;
62790;SDS011;48830;53.426;10.300;2022-10-31T09:11:36;46.72;;;22.92;;
62790;SDS011;48830;53.426;10.300;2022-10-31T09:14:24;37.33;;;19.85;;
62790;SDS011;48830;53.426;10.300;2022-10-31T09:17:09;44.92;;;20.70;;
62790;SDS011;48830;53.426;10.300;2022-10-31T09:20:03;41.10;;;18.08;;
62790;SDS011;48830;53.426;10.300;2022-10-31T09:22:32;39.88;;;18.55;;
62790;SDS011;48830;53.426;10.300;2022-10-31T09:24:58;37.17;;;18.45;;
62790;SDS011;48830;53.426;10.300;2022-10-31T09:27:24;39.05;;;18.98;;
62790;SDS011;48830;53.426;10.300;2022-10-31T09:29:53;43.05;;;17.38;;
62790;SDS011;48830;53.426;10.300;2022-10-31T09:32:19;36.92;;;17.27;;
62790;SDS011;48830;53.426;10.300;2022-10-31T09:34:45;37.13;;;17.70;;
62790;SDS011;48830;53.426;10.300;2022-10-31T09:37:14;40.35;;;17.92;;
62790;SDS011;48830;53.426;10.300;2022-10-31T09:39:40;41.17;;;19.33;;
62790;SDS011;48830;53.426;10.300;2022-10-31T09:45:29;32.53;;;17.95;;
62790;SDS011;48830;53.426;10.300;2022-10-31T09:51:34;35.65;;;17.88;;
62790;SDS011;48830;53.426;10.300;2022-10-31T09:54:20;36.95;;;19.55;;
62790;SDS011;48830;53.426;10.300;2022-10-31T09:56:53;36.22;;;19.40;;
62790;SDS011;48830;53.426;10.300;2022-10-31T09:59:36;30.67;;;16.88;;
62790;SDS011;48830;53.426;10.300;2022-10-31T10:02:27;31.95;;;17.10;;
62790;SDS011;48830;53.426;10.300;2022-10-31T10:05:18;31.05;;;15.52;;
62790;SDS011;48830;53.426;10.300;2022-10-31T10:08:07;27.58;;;16.40;;
62790;SDS011;48830;53.426;10.300;2022-10-31T10:10:59;29.00;;;15.52;;
62790;SDS011;48830;53.426;10.300;2022-10-31T10:14:07;27.42;;;15.00;;
62790;SDS011;48830;53.426;10.300;2022-10-31T10:22:19;29.92;;;17.42;;
62790;SDS011;48830;53.426;10.300;2022-10-31T10:30:48;25.23;;;15.48;;
62790;SDS011;48830;53.426;10.300;2022-10-31T10:33:23;30.00;;;15.45;;
62790;SDS011;48830;53.426;10.300;2022-10-31T10:35:55;30.10;;;17.08;;
62790;SDS011;48830;53.426;10.300;2022-10-31T10:38:26;32.58;;;17.38;;
62790;SDS011;48830;53.426;10.300;2022-10-31T10:40:59;31.30;;;17.30;;
62790;SDS011;48830;53.426;10.300;2022-10-31T10:43:34;31.27;;;17.08;;
62790;SDS011;48830;53.426;10.300;2022-10-31T10:51:59;29.23;;;15.80;;
62790;SDS011;48830;53.426;10.300;2022-10-31T10:54:49;30.52;;;17.25;;
62790;SDS011;48830;53.426;10.300;2022-10-31T10:58:15;37.05;;;18.85;;
62790;SDS011;48830;53.426;10.300;2022-10-31T11:02:48;24.77;;;15.38;;
62790;SDS011;48830;53.426;10.300;2022-10-31T11:05:24;27.10;;;15.38;;
62790;SDS011;48830;53.426;10.300;2022-10-31T11:07:53;23.60;;;15.48;;
62790;SDS011;48830;53.426;10.300;2022-10-31T11:10:19;25.73;;;15.95;;
62790;SDS011;48830;53.426;10.300;2022-10-31T11:12:56;25.65;;;14.80;;
62790;SDS011;48830;53.426;10.300;2022-10-31T11:15:33;28.00;;;14.93;;
62790;SDS011;48830;53.426;10.300;2022-10-31T11:18:18;25.65;;;15.02;;
62790;SDS011;48830;53.426;10.300;2022-10-31T11:20:50;23.77;;;14.25;;
62790;SDS011;48830;53.426;10.300;2022-10-31T11:23:18;24.02;;;14.18;;
62790;SDS011;48830;53.426;10.300;2022-10-31T11:25:48;27.38;;;15.30;;
62790;SDS011;48830;53.426;10.300;2022-10-31T11:28:24;24.35;;;13.57;;
62790;SDS011;48830;53.426;10.300;2022-10-31T11:30:51;23.15;;;13.80;;
62790;SDS011;48830;53.426;10.300;2022-10-31T11:33:24;25.02;;;13.50;;
62790;SDS011;48830;53.426;10.300;2022-10-31T11:35:51;25.65;;;14.30;;
62790;SDS011;48830;53.426;10.300;2022-10-31T11:38:19;20.75;;;13.95;;
62790;SDS011;48830;53.426;10.300;2022-10-31T11:40:57;23.42;;;13.57;;
62790;SDS011;48830;53.426;10.300;2022-10-31T11:43:28;22.25;;;12.93;;
62790;SDS011;48830;53.426;10.300;2022-10-31T11:45:54;20.20;;;13.02;;
62790;SDS011;48830;53.426;10.300;2022-10-31T11:48:20;22.08;;;13.82;;
62790;SDS011;48830;53.426;10.300;2022-10-31T11:50:49;22.33;;;13.73;;
62790;SDS011;48830;53.426;10.300;2022-10-31T11:53:27;21.27;;;12.93;;
62790;SDS011;48830;53.426;10.300;2022-10-31T11:56:27;20.30;;;13.30;;
62790;SDS011;48830;53.426;10.300;2022-10-31T11:59:02;24.35;;;13.40;;
62790;SDS011;48830;53.426;10.300;2022-10-31T12:01:31;21.60;;;13.40;;
62790;SDS011;48830;53.426;10.300;2022-10-31T12:06:34;19.20;;;12.75;;
62790;SDS011;48830;53.426;10.300;2022-10-31T12:09:21;20.73;;;13.13;;
62790;SDS011;48830;53.426;10.300;2022-10-31T12:23:12;21.58;;;13.80;;
62790;SDS011;48830;53.426;10.300;2022-10-31T12:25:51;20.77;;;12.90;;
62790;SDS011;48830;53.426;10.300;2022-10-31T12:31:24;20.88;;;13.13;;
62790;SDS011;48830;53.426;10.300;2022-10-31T12:34:10;22.25;;;13.98;;
62790;SDS011;48830;53.426;10.300;2022-10-31T12:44:40;24.20;;;14.20;;
62790;SDS011;48830;53.426;10.300;2022-10-31T12:49:59;20.33;;;13.20;;
62790;SDS011;48830;53.426;10.300;2022-10-31T12:55:47;20.77;;;13.00;;
62790;SDS011;48830;53.426;10.300;2022-10-31T12:58:26;21.60;;;13.07;;
62790;SDS011;48830;53.426;10.300;2022-10-31T13:01:05;22.92;;;12.95;;
62790;SDS011;48830;53.426;10.300;2022-10-31T13:03:48;22.23;;;13.27;;
62790;SDS011;48830;53.426;10.300;2022-10-31T13:06:50;21.80;;;13.35;;
62790;SDS011;48830;53.426;10.300;2022-10-31T13:09:27;20.58;;;12.45;;
62790;SDS011;48830;53.426;10.300;2022-10-31T13:12:04;23.10;;;12.93;;
62790;SDS011;48830;53.426;10.300;2022-10-31T13:14:36;19.88;;;12.75;;
62790;SDS011;48830;53.426;10.300;2022-10-31T13:17:13;20.52;;;11.90;;
62790;SDS011;48830;53.426;10.300;2022-10-31T13:20:16;19.05;;;12.27;;
62790;SDS011;48830;53.426;10.300;2022-10-31T13:22:50;20.83;;;12.25;;
62790;SDS011;48830;53.426;10.300;2022-10-31T13:25:23;20.60;;;12.35;;
62790;SDS011;48830;53.426;10.300;2022-10-31T13:30:27;19.15;;;12.20;;
62790;SDS011;48830;53.426;10.300;2022-10-31T13:38:33;21.55;;;12.38;;
62790;SDS011;48830;53.426;10.300;2022-10-31T13:44:15;19.20;;;12.30;;
62790;SDS011;48830;53.426;10.300;2022-10-31T13:46:49;18.55;;;10.73;;
62790;SDS011;48830;53.426;10.300;2022-10-31T13:51:50;18.65;;;11.45;;
62790;SDS011;48830;53.426;10.300;2022-10-31T13:54:21;17.98;;;11.63;;
62790;SDS011;48830;53.426;10.300;2022-10-31T13:56:57;16.40;;;10.75;;
62790;SDS011;48830;53.426;10.300;2022-10-31T13:59:24;16.02;;;10.48;;
62790;SDS011;48830;53.426;10.300;2022-10-31T14:01:55;18.00;;;10.43;;
62790;SDS011;48830;53.426;10.300;2022-10-31T14:04:30;17.15;;;10.80;;
62790;SDS011;48830;53.426;10.300;2022-10-31T14:07:13;17.63;;;11.30;;
62790;SDS011;48830;53.426;10.300;2022-10-31T14:09:48;17.63;;;10.65;;
62790;SDS011;48830;53.426;10.300;2022-10-31T14:12:30;13.77;;;10.15;;
62790;SDS011;48830;53.426;10.300;2022-10-31T14:23:45;16.67;;;10.15;;
62790;SDS011;48830;53.426;10.300;2022-10-31T14:28:43;14.55;;;9.98;;
62790;SDS011;48830;53.426;10.300;2022-10-31T14:34:00;16.45;;;9.45;;
62790;SDS011;48830;53.426;10.300;2022-10-31T14:36:55;17.42;;;9.68;;
62790;SDS011;48830;53.426;10.300;2022-10-31T14:49:54;14.15;;;9.15;;
62790;SDS011;48830;53.426;10.300;2022-10-31T14:52:44;15.68;;;9.43;;
62790;SDS011;48830;53.426;10.300;2022-10-31T14:55:14;15.05;;;8.95;;
62790;SDS011;48830;53.426;10.300;2022-10-31T14:57:44;15.05;;;9.02;;
62790;SDS011;48830;53.426;10.300;2022-10-31T15:00:32;21.50;;;10.93;;
62790;SDS011;48830;53.426;10.300;2022-10-31T15:06:05;18.10;;;9.43;;
62790;SDS011;48830;53.426;10.300;2022-10-31T15:08:40;16.23;;;10.05;;
62790;SDS011;48830;53.426;10.300;2022-10-31T15:11:24;16.77;;;9.90;;
62790;SDS011;48830;53.426;10.300;2022-10-31T15:13:55;15.45;;;8.75;;
62790;SDS011;48830;53.426;10.300;2022-10-31T15:16:23;16.73;;;9.18;;
62790;SDS011;48830;53.426;10.300;2022-10-31T15:19:00;17.02;;;9.98;;
62790;SDS011;48830;53.426;10.300;2022-10-31T15:21:29;15.60;;;8.80;;
62790;SDS011;48830;53.426;10.300;2022-10-31T15:23:59;15.07;;;9.05;;
62790;SDS011;48830;53.426;10.300;2022-10-31T15:26:31;17.17;;;8.95;;
62790;SDS011;48830;53.426;10.300;2022-10-31T15:29:01;14.50;;;8.85;;
62790;SDS011;48830;53.426;10.300;2022-10-31T15:31:29;16.98;;;9.35;;
62790;SDS011;48830;53.426;10.300;2022-10-31T15:33:57;16.67;;;10.15;;
62790;SDS011;48830;53.426;10.300;2022-10-31T15:36:27;20.58;;;10.80;;
62790;SDS011;48830;53.426;10.300;2022-10-31T15:38:55;16.73;;;9.38;;
62790;SDS011;48830;53.426;10.300;2022-10-31T15:41:33;15.13;;;9.13;;
62790;SDS011;48830;53.426;10.300;2022-10-31T15:44:04;18.40;;;9.88;;
62790;SDS011;48830;53.426;10.300;2022-10-31T15:46:37;16.48;;;9.13;;
62790;SDS011;48830;53.426;10.300;2022-10-31T15:49:03;14.50;;;9.00;;
62790;SDS011;48830;53.426;10.300;2022-10-31T15:51:30;16.98;;;9.45;;
62790;SDS011;48830;53.426;10.300;2022-10-31T15:53:58;16.40;;;10.13;;
62790;SDS011;48830;53.426;10.300;2022-10-31T15:56:26;18.23;;;10.45;;
62790;SDS011;48830;53.426;10.300;2022-10-31T15:58:54;16.88;;;10.43;;
62790;SDS011;48830;53.426;10.300;2022-10-31T16:01:23;15.73;;;9.85;;
62790;SDS011;48830;53.426;10.300;2022-10-31T16:06:29;20.40;;;10.82;;
62790;SDS011;48830;53.426;10.300;2022-10-31T16:08:56;19.10;;;10.75;;
62790;SDS011;48830;53.426;10.300;2022-10-31T16:11:23;19.10;;;11.32;;
62790;SDS011;48830;53.426;10.300;2022-10-31T16:16:47;19.38;;;11.68;;
62790;SDS011;48830;53.426;10.300;2022-10-31T16:19:24;21.13;;;11.60;;
62790;SDS011;48830;53.426;10.300;2022-10-31T16:21:54;23.63;;;12.15;;
62790;SDS011;48830;53.426;10.300;2022-10-31T16:24:28;19.92;;;11.90;;
62790;SDS011;48830;53.426;10.300;2022-10-31T16:27:03;19.52;;;11.50;;
62790;SDS011;48830;53.426;10.300;2022-10-31T16:32:03;20.35;;;12.13;;
62790;SDS011;48830;53.426;10.300;2022-10-31T16:34:29;18.52;;;11.77;;
62790;SDS011;48830;53.426;10.300;2022-10-31T16:36:54;22.50;;;12.63;;
62790;SDS011;48830;53.426;10.300;2022-10-31T16:39:20;23.67;;;13.75;;
62790;SDS011;48830;53.426;10.300;2022-10-31T16:41:46;22.55;;;12.50;;
62790;SDS011;48830;53.426;10.300;2022-10-31T16:46:44;24.40;;;12.93;;
62790;SDS011;48830;53.426;10.300;2022-10-31T16:49:10;23.08;;;13.38;;
62790;SDS011;48830;53.426;10.300;2022-10-31T16:51:36;23.55;;;13.45;;
62790;SDS011;48830;53.426;10.300;2022-10-31T16:54:01;24.20;;;13.85;;
62790;SDS011;48830;53.426;10.300;2022-10-31T16:56:30;25.70;;;13.95;;
62790;SDS011;48830;53.426;10.300;2022-10-31T16:58:58;23.40;;;13.93;;
62790;SDS011;48830;53.426;10.300;2022-10-31T17:01:26;27.20;;;14.48;;
62790;SDS011;48830;53.426;10.300;2022-10-31T17:03:52;25.00;;;14.55;;
62790;SDS011;48830;53.426;10.300;2022-10-31T17:06:17;24.60;;;13.57;;
62790;SDS011;48830;53.426;10.300;2022-10-31T17:08:43;24.48;;;14.50;;
62790;SDS011;48830;53.426;10.300;2022-10-31T17:11:12;27.40;;;15.18;;